Time;durP1;ratioP1;P1;durP2;ratioP2;P2;SDS_P1;SDS_P2;PMS_P1;PMS_P2;Temp;Humidity;BMP_temperature;BMP_pressure;BME280_temperature;BME280_humidity;BME280_pressure;Samples;Min_cycle;Max_cycle;Signal;HPM_P1;HPM_P2
2022/12/01 00:00:51;;;;;;;76.55;27.98;;;5.70;99.90;;;;;;4958978;28;20480;-92
2022/12/01 00:03:17;;;;;;;64.88;25.50;;;5.70;99.90;;;;;;4957413;28;20030;-94
2022/12/01 00:05:42;;;;;;;71.65;25.60;;;5.60;99.90;;;;;;4957484;28;20472;-93
2022/12/01 00:08:08;;;;;;;66.85;25.58;;;5.60;99.90;;;;;;4957545;28;20034;-92
2022/12/01 00:10:34;;;;;;;62.15;24.85;;;5.60;99.90;;;;;;4957749;28;20038;-93
2022/12/01 00:13:03;;;;;;;69.97;24.17;;;5.60;99.90;;;;;;4957953;28;20077;-93
2022/12/01 00:15:34;;;;;;;75.00;23.13;;;5.60;99.90;;;;;;4958424;28;20034;-93
2022/12/01 00:18:00;;;;;;;;;;;5.60;99.90;;;;;;4959155;28;20092;-92
2022/12/01 00:20:26;;;;;;;69.18;20.80;;;5.60;99.90;;;;;;4961762;28;19910;-92
2022/12/01 00:22:52;;;;;;;58.30;20.65;;;5.60;99.90;;;;;;4976977;28;20046;-93
2022/12/01 00:25:19;;;;;;;59.60;21.42;;;5.60;99.90;;;;;;4981722;28;20457;-93
2022/12/01 00:27:49;;;;;;;62.55;21.60;;;5.60;99.90;;;;;;4977277;28;20026;-92
2022/12/01 00:30:16;;;;;;;57.97;19.95;;;5.60;99.90;;;;;;4973852;28;20046;-92
2022/12/01 00:32:41;;;;;;;58.60;20.17;;;5.60;99.90;;;;;;4973502;28;20031;-92
2022/12/01 00:35:07;;;;;;;61.10;19.58;;;5.60;99.90;;;;;;4973666;28;20031;-92
2022/12/01 00:37:34;;;;;;;64.38;21.27;;;5.50;99.90;;;;;;4973121;28;20138;-92
2022/12/01 00:40:00;;;;;;;58.90;20.17;;;5.50;99.90;;;;;;4973283;28;20045;-92
2022/12/01 00:42:26;;;;;;;60.00;19.42;;;5.50;99.90;;;;;;4973182;28;20121;-93
2022/12/01 00:44:52;;;;;;;63.40;21.33;;;5.50;99.90;;;;;;4975800;28;20155;-93
2022/12/01 00:47:18;;;;;;;66.18;19.55;;;5.50;99.90;;;;;;4974344;28;20030;-93
2022/12/01 00:49:45;;;;;;;57.63;18.70;;;5.50;99.90;;;;;;4974011;28;20031;-93
2022/12/01 00:52:18;;;;;;;58.58;20.73;;;5.50;99.90;;;;;;4974762;28;20034;-92
2022/12/01 00:54:44;;;;;;;63.22;20.60;;;5.50;99.90;;;;;;4974365;28;20272;-93
2022/12/01 00:57:10;;;;;;;60.58;22.17;;;5.60;99.90;;;;;;4980610;28;20484;-92
2022/12/01 00:59:35;;;;;;;51.80;17.92;;;5.60;99.90;;;;;;4991095;28;20154;-92
2022/12/01 01:02:04;;;;;;;59.33;21.00;;;5.60;99.90;;;;;;4990637;28;20045;-92
2022/12/01 01:04:32;;;;;;;58.40;18.63;;;5.60;99.90;;;;;;4988020;28;20070;-92
2022/12/01 01:06:58;;;;;;;64.65;20.73;;;5.50;99.90;;;;;;4983196;28;20027;-93
2022/12/01 01:09:24;;;;;;;58.60;18.38;;;5.60;99.90;;;;;;4979508;28;20027;-92
2022/12/01 01:11:52;;;;;;;57.65;18.50;;;5.50;99.90;;;;;;4985633;28;20121;-92
2022/12/01 01:14:18;;;;;;;55.78;18.45;;;5.60;99.90;;;;;;4995916;28;20031;-92
2022/12/01 01:16:43;;;;;;;40.58;15.57;;;5.60;99.90;;;;;;4993413;28;20082;-92
2022/12/01 01:19:09;;;;;;;44.47;14.63;;;5.60;99.90;;;;;;4996532;28;20042;-92
2022/12/01 01:21:35;;;;;;;40.85;15.20;;;5.50;99.90;;;;;;4996972;28;20098;-92
2022/12/01 01:24:01;;;;;;;36.85;13.43;;;5.50;99.90;;;;;;4995294;28;20051;-93
2022/12/01 01:26:29;;;;;;;41.60;13.55;;;5.50;99.90;;;;;;4984944;28;20030;-91
2022/12/01 01:29:01;;;;;;;38.78;13.48;;;5.50;99.90;;;;;;4980705;28;20062;-94
2022/12/01 01:31:29;;;;;;;40.70;14.00;;;5.50;99.90;;;;;;4979501;28;20034;-94
2022/12/01 01:33:56;;;;;;;47.08;14.75;;;5.40;99.90;;;;;;4979818;28;20030;-93
2022/12/01 01:36:24;;;;;;;39.75;14.75;;;5.40;99.90;;;;;;4979359;28;20496;-94
2022/12/01 01:38:52;;;;;;;39.22;14.02;;;5.40;99.90;;;;;;4979188;28;20059;-93
2022/12/01 01:41:18;;;;;;;36.30;13.35;;;5.40;99.90;;;;;;4978161;28;20393;-93
2022/12/01 01:44:03;;;;;;;38.25;13.52;;;5.40;99.90;;;;;;4974722;28;20133;-93
2022/12/01 01:46:31;;;;;;;45.97;15.50;;;5.40;99.90;;;;;;4977893;28;20030;-92
2022/12/01 01:48:59;;;;;;;41.92;14.65;;;5.40;99.90;;;;;;4978260;28;20038;-93
2022/12/01 01:51:47;;;;;;;40.35;14.68;;;5.40;99.90;;;;;;4978011;28;20121;-95
2022/12/01 01:54:18;;;;;;;37.30;14.50;;;5.50;99.90;;;;;;4978127;28;20071;-95
2022/12/01 01:56:46;;;;;;;41.88;15.60;;;5.50;99.90;;;;;;4977831;28;20022;-93
2022/12/01 01:59:16;;;;;;;40.67;14.18;;;5.50;99.90;;;;;;4977124;28;20039;-93
2022/12/01 02:01:43;;;;;;;39.20;14.88;;;5.50;99.90;;;;;;4978798;28;20027;-94
2022/12/01 02:04:08;;;;;;;37.83;13.88;;;5.50;99.90;;;;;;4978813;28;20039;-94
2022/12/01 02:06:34;;;;;;;42.92;15.00;;;5.50;99.90;;;;;;4977471;28;20053;-94
2022/12/01 02:09:00;;;;;;;37.83;13.18;;;5.50;99.90;;;;;;4977419;28;20078;-93
2022/12/01 02:12:13;;;;;;;35.15;14.02;;;5.40;99.90;;;;;;4976861;28;20042;-92
2022/12/01 02:15:15;;;;;;;39.65;13.60;;;5.40;99.90;;;;;;4940204;29;20035;-94
2022/12/01 02:18:16;;;;;;;38.97;13.93;;;5.50;99.90;;;;;;4941477;29;20133;-96
2022/12/01 02:20:54;;;;;;;;;;;5.50;99.90;;;;;;4941228;28;20033;-94
2022/12/01 02:24:08;;;;;;;34.63;12.32;;;5.50;99.90;;;;;;4956594;29;19965;-94
2022/12/01 02:26:48;;;;;;;30.45;12.25;;;5.40;99.90;;;;;;4951507;29;20035;-94
2022/12/01 02:29:35;;;;;;;38.80;13.35;;;5.40;99.90;;;;;;4939393;29;20222;-93
2022/12/01 02:32:21;;;;;;;42.00;14.98;;;5.40;99.90;;;;;;4939169;29;20154;-94
2022/12/01 02:34:55;;;;;;;35.38;11.80;;;5.40;99.90;;;;;;4939636;29;20183;-93
2022/12/01 02:37:38;;;;;;;38.22;13.27;;;5.40;99.90;;;;;;4939427;29;20031;-93
2022/12/01 02:40:30;;;;;;;41.92;13.88;;;5.40;99.90;;;;;;4939117;29;20708;-93
2022/12/01 02:43:03;;;;;;;34.03;12.27;;;5.40;99.90;;;;;;4939291;29;20035;-95
2022/12/01 02:45:57;;;;;;;39.20;11.93;;;5.40;99.90;;;;;;4938951;29;20039;-93
2022/12/01 02:48:30;;;;;;;37.45;13.68;;;5.40;99.90;;;;;;4936671;29;20059;-93
2022/12/01 02:51:01;;;;;;;41.03;13.90;;;5.40;99.90;;;;;;4966824;28;20073;-94
2022/12/01 02:53:27;;;;;;;42.40;14.02;;;5.40;99.90;;;;;;4978156;28;20488;-94
2022/12/01 02:55:54;;;;;;;44.33;15.15;;;5.40;99.90;;;;;;4976895;28;20035;-93
2022/12/01 02:58:21;;;;;;;46.88;15.27;;;5.40;99.90;;;;;;4978076;28;20475;-95
2022/12/01 03:01:21;;;;;;;49.55;14.77;;;5.30;99.90;;;;;;4975354;28;20053;-93
2022/12/01 03:04:02;;;;;;;51.10;16.13;;;5.40;99.90;;;;;;4976775;28;20066;-93
2022/12/01 03:06:40;;;;;;;49.40;14.57;;;5.40;99.90;;;;;;4988140;28;20043;-92
2022/12/01 03:09:16;;;;;;;42.65;13.43;;;5.40;99.90;;;;;;4983887;28;20518;-94
2022/12/01 03:12:14;;;;;;;44.75;14.40;;;5.40;99.90;;;;;;4975472;28;20068;-93
2022/12/01 03:15:02;;;;;;;41.22;13.30;;;5.30;99.90;;;;;;4967504;28;20031;-95
2022/12/01 03:17:35;;;;;;;46.38;15.25;;;5.40;99.90;;;;;;4974087;28;20555;-94
2022/12/01 03:20:13;;;;;;;45.22;15.23;;;5.30;99.90;;;;;;4976173;28;20022;-94
2022/12/01 03:22:50;;;;;;;44.88;14.55;;;5.40;99.90;;;;;;4974802;28;20043;-95
2022/12/01 03:25:17;;;;;;;38.33;12.98;;;5.30;99.90;;;;;;4974721;28;20027;-93
2022/12/01 03:27:46;;;;;;;46.90;14.55;;;5.30;99.90;;;;;;4974608;28;20046;-94
2022/12/01 03:30:13;;;;;;;52.95;15.77;;;5.40;99.90;;;;;;4974617;28;20031;-94
2022/12/01 03:33:03;;;;;;;54.30;15.95;;;5.40;99.90;;;;;;4974280;28;20031;-93
2022/12/01 03:35:53;;;;;;;46.00;17.10;;;5.40;99.90;;;;;;4974212;28;20027;-93
2022/12/01 03:38:23;;;;;;;46.53;14.63;;;5.40;99.90;;;;;;4974338;28;20266;-94
2022/12/01 03:40:51;;;;;;;42.40;14.48;;;5.40;99.90;;;;;;4974567;28;20062;-94
2022/12/01 03:43:29;;;;;;;45.10;13.77;;;5.40;99.90;;;;;;4974691;28;20046;-93
2022/12/01 03:46:01;;;;;;;42.75;13.57;;;5.40;99.90;;;;;;4974434;28;20023;-95
2022/12/01 03:48:28;;;;;;;43.30;14.82;;;5.40;99.90;;;;;;4974406;28;20038;-95
2022/12/01 03:51:15;;;;;;;41.83;14.88;;;5.40;99.90;;;;;;4974240;28;20023;-93
2022/12/01 03:53:46;;;;;;;44.65;15.35;;;5.40;99.90;;;;;;4974548;28;20052;-93
2022/12/01 03:56:14;;;;;;;39.42;13.35;;;5.40;99.90;;;;;;4975045;28;20054;-93
2022/12/01 03:58:44;;;;;;;43.83;13.50;;;5.50;99.90;;;;;;4974913;28;20027;-93
2022/12/01 04:01:11;;;;;;;36.35;13.52;;;5.40;99.90;;;;;;4975708;28;20031;-94
2022/12/01 04:03:37;;;;;;;34.40;12.27;;;5.50;99.90;;;;;;4981131;28;20042;-94
2022/12/01 04:06:03;;;;;;;37.40;12.45;;;5.50;99.90;;;;;;4986736;28;20027;-93
2022/12/01 04:08:29;;;;;;;43.03;13.90;;;5.40;99.90;;;;;;4982629;28;20030;-92
2022/12/01 04:10:56;;;;;;;37.95;12.40;;;5.40;99.90;;;;;;4979586;28;20376;-92
2022/12/01 04:13:22;;;;;;;44.00;14.60;;;5.40;99.90;;;;;;4971490;28;20038;-92
2022/12/01 04:15:52;;;;;;;35.00;12.73;;;5.40;99.90;;;;;;4962437;28;20080;-94
2022/12/01 04:18:18;;;;;;;43.92;14.60;;;5.40;99.90;;;;;;4963466;28;20240;-93
2022/12/01 04:20:45;;;;;;;41.53;14.32;;;5.40;99.90;;;;;;4961064;28;20043;-93
2022/12/01 04:23:58;;;;;;;40.05;13.63;;;5.40;99.90;;;;;;4959114;28;20101;-93
2022/12/01 04:25:59;;;;;;;37.95;14.20;;;5.50;99.90;;;;;;4975036;28;20074;-93
2022/12/01 04:28:25;;;;;;;48.47;16.40;;;5.50;99.90;;;;;;4957623;28;20146;-93
2022/12/01 04:30:50;;;;;;;43.30;14.45;;;5.40;99.90;;;;;;4957406;28;20524;-92
2022/12/01 04:33:16;;;;;;;50.25;15.23;;;5.50;99.90;;;;;;4957702;28;20031;-93
2022/12/01 04:35:41;;;;;;;48.17;16.80;;;5.50;99.90;;;;;;4957490;28;20030;-92
2022/12/01 04:38:07;;;;;;;40.80;14.85;;;5.40;99.90;;;;;;4957699;28;20081;-94
2022/12/01 04:40:33;;;;;;;40.20;15.95;;;5.50;99.90;;;;;;4958215;28;20019;-93
2022/12/01 04:42:58;;;;;;;42.90;15.40;;;5.50;99.90;;;;;;4957309;28;20034;-94
2022/12/01 04:45:24;;;;;;;41.08;14.93;;;5.50;99.90;;;;;;4956571;28;20046;-93
2022/12/01 04:47:52;;;;;;;46.42;15.10;;;5.40;99.90;;;;;;4956946;28;20030;-94
2022/12/01 04:50:17;;;;;;;46.72;16.23;;;5.40;99.90;;;;;;4957016;28;20468;-94
2022/12/01 04:52:43;;;;;;;44.60;15.90;;;5.40;99.90;;;;;;4956919;28;20034;-93
2022/12/01 04:55:09;;;;;;;44.85;14.93;;;5.40;99.90;;;;;;4956928;28;20027;-94
2022/12/01 04:57:34;;;;;;;47.15;14.73;;;5.40;99.90;;;;;;4957202;28;20072;-93
2022/12/01 05:00:00;;;;;;;45.17;14.90;;;5.40;99.90;;;;;;4957126;28;20117;-94
2022/12/01 05:02:26;;;;;;;52.00;17.25;;;5.40;99.90;;;;;;4957822;28;20031;-93
2022/12/01 05:04:52;;;;;;;48.38;15.30;;;5.40;99.90;;;;;;4960963;28;20054;-94
2022/12/01 05:07:17;;;;;;;51.35;14.68;;;5.40;99.90;;;;;;4957118;28;20432;-94
2022/12/01 05:09:43;;;;;;;63.83;16.63;;;5.40;99.90;;;;;;4957247;28;20031;-94
2022/12/01 05:12:09;;;;;;;57.47;15.45;;;5.40;99.90;;;;;;4957218;28;20058;-94
2022/12/01 05:14:34;;;;;;;49.08;15.45;;;5.30;99.90;;;;;;4956872;28;20089;-94
2022/12/01 05:17:01;;;;;;;46.60;14.63;;;5.30;99.90;;;;;;4957094;28;20073;-94
2022/12/01 05:22:10;;;;;;;55.08;15.00;;;5.30;99.90;;;;;;4974328;28;20037;-93
2022/12/01 05:24:36;;;;;;;55.20;14.90;;;5.30;99.90;;;;;;4956958;28;20408;-93
2022/12/01 05:27:02;;;;;;;46.38;14.90;;;5.30;99.90;;;;;;4956783;28;20101;-93
2022/12/01 05:29:27;;;;;;;53.97;15.05;;;5.30;99.90;;;;;;4957227;28;20027;-92
2022/12/01 05:31:53;;;;;;;49.35;15.90;;;5.20;99.90;;;;;;4957287;28;20118;-93
2022/12/01 05:34:19;;;;;;;55.83;16.90;;;5.20;99.90;;;;;;4957168;28;20031;-93
2022/12/01 05:36:44;;;;;;;61.50;16.65;;;5.30;99.90;;;;;;4957392;28;20162;-94
2022/12/01 05:39:10;;;;;;;51.90;15.88;;;5.20;99.90;;;;;;4957585;28;20019;-94
2022/12/01 05:41:36;;;;;;;55.72;16.45;;;5.30;99.90;;;;;;4957786;28;20039;-94
2022/12/01 05:44:01;;;;;;;54.55;16.13;;;5.20;99.90;;;;;;4957436;28;20039;-95
2022/12/01 05:46:27;;;;;;;53.05;15.48;;;5.30;99.90;;;;;;4956714;28;20370;-92
2022/12/01 05:48:53;;;;;;;67.90;17.63;;;5.30;99.90;;;;;;4957136;28;20174;-92
2022/12/01 05:51:18;;;;;;;70.60;16.52;;;5.20;99.90;;;;;;4972895;28;20031;-92
2022/12/01 05:53:44;;;;;;;75.55;18.52;;;5.30;99.90;;;;;;4972763;28;20082;-93
2022/12/01 05:56:10;;;;;;;68.15;19.55;;;5.30;99.90;;;;;;4973223;28;20099;-91
2022/12/01 05:58:36;;;;;;;67.55;17.48;;;5.20;99.90;;;;;;4976449;28;20033;-93
2022/12/01 06:01:02;;;;;;;60.38;16.52;;;5.20;99.90;;;;;;4976413;28;20023;-93
2022/12/01 06:03:28;;;;;;;73.32;17.52;;;5.20;99.90;;;;;;4976088;28;20050;-94
2022/12/01 06:05:54;;;;;;;68.35;16.75;;;5.20;99.90;;;;;;4976937;28;20620;-91
2022/12/01 06:08:19;;;;;;;57.75;16.33;;;5.30;99.90;;;;;;4976395;28;20035;-93
2022/12/01 06:10:46;;;;;;;65.10;18.30;;;5.20;99.90;;;;;;4976298;28;20038;-93
2022/12/01 06:13:12;;;;;;;69.80;18.55;;;5.20;99.90;;;;;;4976806;28;20023;-92
2022/12/01 06:15:37;;;;;;;62.50;17.63;;;5.20;99.90;;;;;;4976697;28;20054;-94
2022/12/01 06:18:03;;;;;;;63.88;17.88;;;5.20;99.90;;;;;;4976370;28;20026;-92
2022/12/01 06:20:29;;;;;;;72.05;19.13;;;5.30;99.90;;;;;;4988504;28;20038;-93
2022/12/01 06:22:54;;;;;;;56.67;15.40;;;5.20;99.90;;;;;;4995962;28;20051;-93
2022/12/01 06:25:20;;;;;;;60.08;18.27;;;5.30;99.90;;;;;;4982159;28;20038;-92
2022/12/01 06:27:46;;;;;;;76.65;19.52;;;5.30;99.90;;;;;;4976308;28;20023;-92
2022/12/01 06:30:12;;;;;;;70.28;19.85;;;5.30;99.90;;;;;;4975437;28;20030;-92
2022/12/01 06:32:37;;;;;;;64.35;19.02;;;5.30;99.90;;;;;;4975590;28;20473;-93
2022/12/01 06:35:03;;;;;;;74.13;19.73;;;5.30;99.90;;;;;;4975754;28;20050;-93
2022/12/01 06:37:29;;;;;;;80.97;20.77;;;5.40;99.90;;;;;;4976093;28;20031;-94
2022/12/01 06:39:54;;;;;;;75.15;20.02;;;5.40;99.90;;;;;;4975971;28;20053;-93
2022/12/01 06:42:20;;;;;;;74.20;18.77;;;5.40;99.90;;;;;;4976018;28;20456;-93
2022/12/01 06:44:46;;;;;;;75.85;19.85;;;5.40;99.90;;;;;;4975282;28;20038;-95
2022/12/01 06:47:11;;;;;;;72.43;19.63;;;5.40;99.90;;;;;;4975025;28;20066;-93
2022/12/01 06:49:37;;;;;;;73.22;19.70;;;5.40;99.90;;;;;;4975251;28;20027;-94
2022/12/01 06:52:04;;;;;;;63.08;18.73;;;5.40;99.90;;;;;;4975390;28;20066;-93
2022/12/01 06:54:29;;;;;;;60.47;17.55;;;5.30;99.90;;;;;;4975241;28;20389;-93
2022/12/01 06:56:55;;;;;;;68.38;19.20;;;5.30;99.90;;;;;;4975176;28;20034;-93
2022/12/01 06:59:21;;;;;;;74.95;19.95;;;5.30;99.90;;;;;;4975089;28;20512;-93
2022/12/01 07:01:53;;;;;;;68.65;19.63;;;5.30;99.90;;;;;;4976623;28;20030;-94
2022/12/01 07:04:24;;;;;;;82.35;21.02;;;5.30;99.90;;;;;;4975862;28;20038;-94
2022/12/01 07:06:50;;;;;;;79.72;21.48;;;5.30;99.90;;;;;;4974802;28;20035;-94
2022/12/01 07:09:16;;;;;;;60.90;17.55;;;5.30;99.90;;;;;;4979587;28;20034;-94
2022/12/01 07:11:41;;;;;;;83.85;23.08;;;5.30;99.90;;;;;;4975409;28;20042;-94
2022/12/01 07:14:20;;;;;;;93.78;24.48;;;5.30;99.90;;;;;;4975995;28;20553;-92
2022/12/01 07:16:46;;;;;;;90.15;24.20;;;5.40;99.90;;;;;;4969432;28;20031;-92
2022/12/01 07:19:12;;;;;;;60.17;20.02;;;5.30;99.90;;;;;;4974802;28;20103;-93
2022/12/01 07:21:37;;;;;;;69.90;19.63;;;5.30;99.90;;;;;;4972250;28;20057;-93
2022/12/01 07:24:03;;;;;;;94.60;29.27;;;5.30;99.90;;;;;;4970257;28;20488;-92
2022/12/01 07:26:29;;;;;;;79.63;22.70;;;5.30;99.90;;;;;;4966833;28;20054;-92
2022/12/01 07:28:55;;;;;;;90.35;26.70;;;5.30;99.90;;;;;;4964885;28;20412;-94
2022/12/01 07:31:20;;;;;;;80.68;23.13;;;5.30;99.90;;;;;;4962621;28;20029;-94
2022/12/01 07:33:46;;;;;;;106.82;27.15;;;5.30;99.90;;;;;;4962959;28;20033;-93
2022/12/01 07:36:13;;;;;;;107.75;29.15;;;5.30;99.90;;;;;;4961851;28;20033;-94
2022/12/01 07:38:39;;;;;;;83.70;25.05;;;5.30;99.90;;;;;;4962089;28;20035;-92
2022/12/01 07:41:10;;;;;;;98.03;29.52;;;5.20;99.90;;;;;;4961815;28;20102;-93
2022/12/01 07:43:36;;;;;;;116.10;33.50;;;5.30;99.90;;;;;;4979247;28;20062;-95
2022/12/01 07:46:12;;;;;;;118.70;33.63;;;5.20;99.90;;;;;;4959353;28;20027;-93
2022/12/01 07:48:39;;;;;;;94.63;25.92;;;5.20;99.90;;;;;;4964697;28;20047;-93
2022/12/01 07:51:10;;;;;;;119.25;33.67;;;5.20;99.90;;;;;;4965346;28;20027;-95
2022/12/01 07:53:35;;;;;;;109.50;31.20;;;5.20;99.90;;;;;;4960186;28;20085;-93
2022/12/01 07:56:02;;;;;;;130.45;36.55;;;5.20;99.90;;;;;;4960382;28;20054;-93
2022/12/01 07:58:31;;;;;;;138.90;37.38;;;5.20;99.90;;;;;;4967060;28;20031;-94
2022/12/01 08:00:58;;;;;;;120.85;35.75;;;5.20;99.90;;;;;;4967643;28;20036;-93
2022/12/01 08:03:24;;;;;;;118.78;35.17;;;5.20;99.90;;;;;;4967010;28;20091;-93
2022/12/01 08:06:00;;;;;;;111.18;33.35;;;5.20;99.90;;;;;;4977600;28;20035;-92
2022/12/01 08:08:29;;;;;;;129.38;34.90;;;5.20;99.90;;;;;;4978096;28;20050;-92
2022/12/01 08:10:59;;;;;;;142.68;39.97;;;5.20;99.90;;;;;;4977325;28;20043;-92
2022/12/01 08:13:25;;;;;;;152.70;39.85;;;5.20;99.90;;;;;;4978799;28;20025;-94
2022/12/01 08:15:51;;;;;;;133.57;37.25;;;5.20;99.90;;;;;;4959922;28;20050;-94
2022/12/01 08:18:16;;;;;;;132.07;35.55;;;5.20;99.90;;;;;;4973291;28;20057;-93
2022/12/01 08:20:42;;;;;;;149.10;38.97;;;5.20;99.90;;;;;;4975011;28;20102;-95
2022/12/01 08:23:08;;;;;;;121.28;33.97;;;5.20;99.90;;;;;;4972142;28;20100;-94
2022/12/01 08:25:34;;;;;;;89.03;26.75;;;5.20;99.90;;;;;;4963690;28;20030;-93
2022/12/01 08:28:00;;;;;;;70.55;21.70;;;5.20;99.90;;;;;;4964146;28;20038;-93
2022/12/01 08:30:26;;;;;;;72.38;21.10;;;5.20;99.90;;;;;;4962208;28;20058;-94
2022/12/01 08:32:53;;;;;;;61.70;19.27;;;5.20;99.90;;;;;;4961436;28;20035;-93
2022/12/01 08:35:19;;;;;;;59.20;18.02;;;5.20;99.90;;;;;;4960604;28;20035;-96
2022/12/01 08:37:45;;;;;;;57.00;17.65;;;5.20;99.90;;;;;;4960170;28;20058;-93
2022/12/01 08:40:11;;;;;;;48.22;16.13;;;5.10;99.90;;;;;;4960780;28;20054;-94
2022/12/01 08:42:37;;;;;;;48.92;16.25;;;5.10;99.90;;;;;;4960967;28;20030;-95
2022/12/01 08:45:04;;;;;;;64.10;19.98;;;5.10;99.90;;;;;;4962164;28;20074;-95
2022/12/01 08:47:29;;;;;;;51.25;16.77;;;5.10;99.90;;;;;;4957557;28;20089;-96
2022/12/01 08:49:55;;;;;;;52.88;16.38;;;5.10;99.90;;;;;;4977662;28;20106;-95
2022/12/01 08:52:20;;;;;;;56.88;16.98;;;5.10;99.90;;;;;;4960228;28;20030;-94
2022/12/01 08:54:46;;;;;;;60.50;19.70;;;5.10;99.90;;;;;;4958599;28;20016;-92
2022/12/01 08:57:12;;;;;;;64.32;20.08;;;5.10;99.90;;;;;;4975901;28;20038;-93
2022/12/01 08:59:38;;;;;;;69.75;20.52;;;5.10;99.90;;;;;;4953497;28;20027;-93
2022/12/01 09:02:05;;;;;;;60.30;19.77;;;5.10;99.90;;;;;;4958762;28;20023;-92
2022/12/01 09:04:31;;;;;;;67.40;21.48;;;5.20;99.90;;;;;;4958559;28;20492;-94
2022/12/01 09:06:57;;;;;;;74.28;22.33;;;5.20;99.90;;;;;;4958966;28;20027;-92
2022/12/01 09:09:27;;;;;;;74.93;21.15;;;5.20;99.90;;;;;;4957791;28;20502;-91
2022/12/01 09:11:54;;;;;;;66.82;21.15;;;5.20;99.90;;;;;;4958926;28;20027;-93
2022/12/01 09:14:21;;;;;;;92.90;25.92;;;5.20;99.90;;;;;;4950545;28;20047;-96
2022/12/01 09:16:51;;;;;;;70.50;21.90;;;5.30;99.90;;;;;;4957594;28;20023;-94
2022/12/01 09:19:18;;;;;;;81.00;23.10;;;5.30;99.90;;;;;;4953745;28;20062;-95
2022/12/01 09:21:44;;;;;;;76.25;23.38;;;5.40;99.90;;;;;;4955326;28;20093;-96
2022/12/01 09:24:13;;;;;;;78.28;22.58;;;5.40;99.90;;;;;;4958591;28;20043;-92
2022/12/01 09:26:39;;;;;;;75.63;22.10;;;5.40;99.90;;;;;;4958274;28;20022;-92
2022/12/01 09:29:08;;;;;;;79.82;24.08;;;5.40;99.90;;;;;;4956717;28;20037;-92
2022/12/01 09:31:34;;;;;;;85.10;24.42;;;5.40;99.90;;;;;;4957604;28;20026;-92
2022/12/01 09:34:02;;;;;;;89.57;26.80;;;5.40;99.90;;;;;;4959269;28;20030;-93
2022/12/01 09:36:30;;;;;;;82.18;24.40;;;5.40;99.90;;;;;;4959193;28;20111;-93
2022/12/01 09:38:56;;;;;;;90.03;25.85;;;5.40;99.90;;;;;;4960578;28;20037;-93
2022/12/01 09:41:38;;;;;;;84.47;23.92;;;5.40;99.90;;;;;;4957238;28;20030;-92
2022/12/01 09:44:46;;;;;;;97.75;27.33;;;5.40;99.90;;;;;;4956974;28;20066;-92
2022/12/01 09:47:24;;;;;;;88.97;26.65;;;5.40;99.90;;;;;;4957435;28;20053;-93
2022/12/01 09:49:59;;;;;;;111.20;30.58;;;5.40;99.90;;;;;;4959736;28;20093;-92
2022/12/01 09:52:28;;;;;;;97.10;29.58;;;5.40;99.90;;;;;;4962035;28;20033;-93
2022/12/01 09:54:56;;;;;;;103.00;29.08;;;5.40;99.90;;;;;;4957407;28;20120;-92
2022/12/01 09:57:35;;;;;;;106.90;28.20;;;5.50;99.90;;;;;;4961336;28;20046;-93
2022/12/01 10:00:11;;;;;;;106.45;30.42;;;5.50;99.90;;;;;;4961260;28;20110;-93
2022/12/01 10:03:04;;;;;;;105.55;29.67;;;5.50;99.90;;;;;;4960462;28;20038;-93
2022/12/01 10:05:54;;;;;;;104.05;29.40;;;5.50;99.90;;;;;;4960687;28;20030;-92
2022/12/01 10:08:24;;;;;;;108.50;30.92;;;5.60;99.90;;;;;;4961230;28;20402;-94
2022/12/01 10:10:54;;;;;;;107.13;28.80;;;5.50;99.90;;;;;;4961529;28;20095;-93
2022/12/01 10:13:22;;;;;;;120.50;33.90;;;5.50;99.90;;;;;;4960545;28;20073;-92
2022/12/01 10:15:48;;;;;;;118.15;32.08;;;5.50;99.90;;;;;;4960790;28;20278;-93
2022/12/01 10:18:14;;;;;;;115.43;33.10;;;5.50;99.90;;;;;;4962462;28;20385;-92
2022/12/01 10:20:58;;;;;;;118.68;32.90;;;5.50;99.90;;;;;;4966262;28;20473;-94
2022/12/01 10:23:42;;;;;;;111.55;33.35;;;5.50;99.90;;;;;;4964237;28;20094;-92
2022/12/01 10:26:16;;;;;;;114.45;33.50;;;5.60;99.90;;;;;;4964806;28;20035;-93
2022/12/01 10:29:02;;;;;;;107.15;31.30;;;5.60;99.90;;;;;;4961243;28;20031;-93
2022/12/01 10:31:38;;;;;;;104.03;29.63;;;5.60;99.90;;;;;;4961197;28;20022;-92
2022/12/01 10:34:15;;;;;;;116.53;35.25;;;5.70;99.90;;;;;;4960068;28;20484;-93
2022/12/01 10:36:41;;;;;;;108.38;33.80;;;5.70;99.90;;;;;;4960271;28;20033;-93
2022/12/01 10:39:18;;;;;;;112.97;33.15;;;5.80;99.90;;;;;;4959406;28;20026;-92
2022/12/01 10:41:46;;;;;;;121.65;34.38;;;5.80;99.90;;;;;;4960053;28;20023;-93
2022/12/01 10:44:12;;;;;;;113.30;32.70;;;5.80;99.90;;;;;;4959355;28;20041;-93
2022/12/01 10:46:49;;;;;;;111.00;34.75;;;5.70;99.90;;;;;;4959769;28;20023;-92
2022/12/01 10:49:17;;;;;;;110.28;34.15;;;5.70;99.90;;;;;;4960630;28;20553;-93
2022/12/01 10:52:28;;;;;;;117.60;35.30;;;5.70;99.90;;;;;;4977263;28;20038;-93
2022/12/01 10:54:54;;;;;;;109.88;30.23;;;5.70;99.90;;;;;;4959555;28;20027;-91
2022/12/01 10:57:20;;;;;;;112.68;32.78;;;5.70;99.90;;;;;;4959635;28;20505;-96
2022/12/01 11:00:04;;;;;;;106.28;33.28;;;5.70;99.90;;;;;;4959134;28;20392;-92
2022/12/01 11:02:31;;;;;;;112.85;32.47;;;5.80;99.90;;;;;;4959889;28;20095;-94
2022/12/01 11:05:03;;;;;;;121.10;34.85;;;5.80;99.90;;;;;;4958754;28;20485;-93
2022/12/01 11:07:31;;;;;;;114.80;34.25;;;5.80;99.90;;;;;;4958721;28;20058;-93
2022/12/01 11:10:17;;;;;;;113.05;34.22;;;5.80;99.90;;;;;;4959537;28;20031;-92
2022/12/01 11:12:51;;;;;;;116.57;33.63;;;5.90;99.90;;;;;;4963625;28;20098;-92
2022/12/01 11:15:31;;;;;;;119.10;33.60;;;5.90;99.90;;;;;;4958270;28;20035;-94
2022/12/01 11:18:06;;;;;;;120.07;35.53;;;5.90;99.90;;;;;;4957783;28;20046;-93
2022/12/01 11:20:35;;;;;;;111.47;35.53;;;5.90;99.90;;;;;;4959059;28;20069;-93
2022/12/01 11:23:28;;;;;;;121.18;34.35;;;5.90;99.90;;;;;;4959524;28;20049;-92
2022/12/01 11:26:24;;;;;;;114.63;36.13;;;5.90;99.90;;;;;;4958440;28;20043;-92
2022/12/01 11:28:55;;;;;;;115.00;36.17;;;5.90;99.90;;;;;;4958762;28;20026;-93
2022/12/01 11:31:33;;;;;;;115.43;35.90;;;5.90;99.90;;;;;;4958909;28;20058;-94
2022/12/01 11:33:59;;;;;;;118.30;35.28;;;5.90;99.90;;;;;;4958794;28;20030;-93
2022/12/01 11:36:26;;;;;;;119.43;34.05;;;5.80;99.90;;;;;;4958890;28;20022;-94
2022/12/01 11:38:58;;;;;;;121.53;33.75;;;5.80;99.90;;;;;;4958631;28;20197;-93
2022/12/01 11:41:31;;;;;;;123.60;37.75;;;5.90;99.90;;;;;;4959282;28;20073;-94
2022/12/01 11:44:00;;;;;;;120.47;35.05;;;5.90;99.90;;;;;;4958177;28;20031;-93
2022/12/01 11:46:31;;;;;;;119.45;35.53;;;5.90;99.90;;;;;;4957961;28;20026;-96
2022/12/01 11:48:58;;;;;;;113.35;34.00;;;5.90;99.90;;;;;;4957603;28;20031;-95
2022/12/01 11:51:36;;;;;;;126.22;34.75;;;5.90;99.90;;;;;;4958838;28;20034;-95
2022/12/01 11:54:23;;;;;;;104.65;31.55;;;5.90;99.90;;;;;;4958584;28;20757;-92
2022/12/01 11:56:50;;;;;;;113.45;32.65;;;5.90;99.90;;;;;;4955917;28;20030;-94
2022/12/01 11:59:20;;;;;;;111.32;33.33;;;5.90;99.90;;;;;;4958381;28;20053;-96
2022/12/01 12:01:52;;;;;;;116.13;31.70;;;5.90;99.90;;;;;;4951723;28;20024;-94
2022/12/01 12:04:51;;;;;;;112.57;33.70;;;5.90;99.90;;;;;;4970136;28;20047;-95
2022/12/01 12:07:46;;;;;;;111.90;30.30;;;5.90;99.90;;;;;;4954566;29;20031;-93
2022/12/01 12:10:30;;;;;;;101.85;30.38;;;5.90;99.90;;;;;;4954711;29;20035;-93
2022/12/01 12:13:02;;;;;;;108.85;32.38;;;5.90;99.90;;;;;;4954325;29;20155;-95
2022/12/01 12:15:27;;;;;;;102.43;28.92;;;5.80;99.90;;;;;;4954582;29;20031;-94
2022/12/01 12:18:15;;;;;;;108.22;31.33;;;5.80;99.90;;;;;;4954535;29;20590;-93
2022/12/01 12:21:02;;;;;;;99.57;29.77;;;5.80;99.90;;;;;;4954114;29;20026;-93
2022/12/01 12:23:36;;;;;;;114.20;33.35;;;5.80;99.90;;;;;;4962198;28;20035;-94
2022/12/01 12:26:11;;;;;;;115.40;33.75;;;5.70;99.90;;;;;;4957228;28;20034;-94
2022/12/01 12:29:03;;;;;;;117.35;30.42;;;5.70;99.90;;;;;;4957175;28;20109;-92
2022/12/01 12:31:43;;;;;;;97.85;26.98;;;5.70;99.90;;;;;;4973503;28;20183;-93
2022/12/01 12:34:36;;;;;;;109.37;31.93;;;5.70;99.90;;;;;;4957273;28;20121;-93
2022/12/01 12:37:17;;;;;;;123.10;31.13;;;5.70;99.90;;;;;;4937970;29;20035;-94
2022/12/01 12:40:21;;;;;;;104.05;28.67;;;5.70;99.90;;;;;;4939339;29;20046;-93
2022/12/01 12:43:12;;;;;;;109.13;28.80;;;5.70;99.90;;;;;;4952565;29;20070;-94
2022/12/01 12:46:09;;;;;;;111.68;31.10;;;5.60;99.90;;;;;;4971843;29;20039;-94
2022/12/01 12:49:13;;;;;;;108.63;29.23;;;5.60;99.90;;;;;;4939307;29;20023;-94
2022/12/01 12:51:54;;;;;;;97.70;28.35;;;5.60;99.90;;;;;;4938827;29;20027;-94
2022/12/01 12:54:26;;;;;;;84.80;24.63;;;5.60;99.90;;;;;;4938396;29;20039;-95
2022/12/01 12:57:01;;;;;;;79.95;22.90;;;5.70;99.90;;;;;;4938346;29;20516;-93
2022/12/01 12:59:50;;;;;;;80.88;22.10;;;5.70;99.90;;;;;;4938748;29;20548;-93